Time;durP1;ratioP1;P1;durP2;ratioP2;P2;SDS_P1;SDS_P2;PMS_P1;PMS_P2;Temp;Humidity;BMP_temperature;BMP_pressure;BME280_temperature;BME280_humidity;BME280_pressure;Samples;Min_cycle;Max_cycle;Signal;HPM_P1;HPM_P2
2024/01/22 00:00:16;;;;;;;37.10;20.50;;;;;;;0.11;79.87;101447.16;112907;241;38425;-68
2024/01/22 00:03:10;;;;;;;34.30;20.60;;;;;;;0.07;79.74;101438.98;112842;241;38505;-69
2024/01/22 00:05:44;;;;;;;36.30;20.80;;;;;;;0.04;79.51;101439.27;112848;241;38792;-69
2024/01/22 00:08:18;;;;;;;36.50;20.60;;;;;;;0.02;79.77;101440.41;112830;241;39657;-69
2024/01/22 00:10:51;;;;;;;33.70;18.50;;;;;;;0.01;79.76;101435.94;112857;241;38682;-67
2024/01/22 00:13:25;;;;;;;29.40;17.20;;;;;;;0.01;79.58;101428.39;112848;241;39826;-67
2024/01/22 00:15:58;;;;;;;34.10;19.50;;;;;;;0.03;79.34;101423.96;112871;241;38542;-68
2024/01/22 00:18:32;;;;;;;33.80;19.30;;;;;;;0.03;79.20;101418.83;112875;241;39453;-68
2024/01/22 00:21:07;;;;;;;38.20;20.40;;;;;;;0.03;79.23;101414.88;112870;241;38813;-68
2024/01/22 00:23:40;;;;;;;36.40;20.90;;;;;;;-0.00;79.30;101408.80;112865;241;39756;-68
2024/01/22 00:26:15;;;;;;;32.60;19.50;;;;;;;-0.01;79.33;101404.50;112898;241;38845;-68
2024/01/22 00:28:48;;;;;;;36.10;19.60;;;;;;;-0.03;79.17;101390.41;112866;241;39732;-69
2024/01/22 00:31:22;;;;;;;35.10;19.80;;;;;;;-0.02;79.00;101390.41;112862;241;38290;-67
2024/01/22 00:33:56;;;;;;;38.40;21.20;;;;;;;-0.01;78.73;101392.15;112878;241;39050;-68
2024/01/22 00:36:30;;;;;;;46.00;26.60;;;;;;;0.02;78.38;101385.87;112839;241;38542;-69
2024/01/22 00:39:03;;;;;;;56.50;33.90;;;;;;;0.02;78.19;101386.73;112826;241;38883;-68
2024/01/22 00:41:37;;;;;;;60.00;33.70;;;;;;;0.01;77.99;101382.77;112840;241;38454;-68
2024/01/22 00:44:10;;;;;;;72.90;38.90;;;;;;;-0.00;78.16;101381.19;112875;241;39017;-68
2024/01/22 00:46:44;;;;;;;86.00;47.10;;;;;;;-0.03;77.84;101374.80;112844;241;38540;-68
2024/01/22 00:49:18;;;;;;;59.10;31.70;;;;;;;-0.08;77.60;101363.19;112874;241;39390;-68
2024/01/22 00:51:51;;;;;;;58.30;32.70;;;;;;;-0.14;77.15;101355.68;112857;241;38549;-68
2024/01/22 00:54:25;;;;;;;43.70;26.70;;;;;;;-0.17;77.32;101350.30;112842;241;38318;-67
2024/01/22 00:56:59;;;;;;;46.40;27.60;;;;;;;-0.20;76.98;101353.32;112860;241;38583;-67
2024/01/22 00:59:33;;;;;;;56.50;35.20;;;;;;;-0.23;76.73;101356.68;112886;241;39299;-68
2024/01/22 01:02:06;;;;;;;49.90;30.80;;;;;;;-0.26;76.82;101355.25;112864;241;38993;-68
2024/01/22 01:04:40;;;;;;;93.80;57.10;;;;;;;-0.27;77.13;101352.15;112844;241;39285;-68
2024/01/22 01:07:14;;;;;;;38.60;22.30;;;;;;;-0.29;76.45;101350.73;112841;241;38660;-69
2024/01/22 01:09:47;;;;;;;53.10;28.40;;;;;;;-0.34;76.46;101339.98;112860;241;38893;-68
2024/01/22 01:12:21;;;;;;;42.70;25.90;;;;;;;-0.39;76.68;101335.27;112836;241;38435;-69
2024/01/22 01:14:55;;;;;;;41.00;23.30;;;;;;;-0.43;77.09;101337.39;112957;240;38674;-68
2024/01/22 01:17:29;;;;;;;43.60;26.30;;;;;;;-0.50;76.78;101336.90;112955;240;40129;-68
2024/01/22 01:20:03;;;;;;;44.40;24.50;;;;;;;-0.56;76.69;101337.10;112945;240;39953;-68
2024/01/22 01:22:37;;;;;;;42.40;23.30;;;;;;;-0.61;76.45;101329.96;112915;240;40033;-68
2024/01/22 01:25:11;;;;;;;46.70;25.00;;;;;;;-0.62;76.57;101323.95;112926;240;39027;-67
2024/01/22 01:27:45;;;;;;;40.80;21.60;;;;;;;-0.64;76.65;101326.13;112904;240;38414;-67
2024/01/22 01:30:19;;;;;;;39.80;21.00;;;;;;;-0.68;76.78;101334.60;112953;240;38585;-67
2024/01/22 01:32:53;;;;;;;34.00;18.00;;;;;;;-0.72;76.84;101341.69;112948;240;39512;-67
2024/01/22 01:35:27;;;;;;;29.10;16.20;;;;;;;-0.79;76.68;101344.44;112943;240;38542;-67
2024/01/22 01:38:00;;;;;;;34.00;17.30;;;;;;;-0.84;76.84;101335.42;112969;240;38760;-67
2024/01/22 01:40:34;;;;;;;30.20;16.40;;;;;;;-0.89;76.54;101331.19;112962;240;38409;-67
2024/01/22 01:43:08;;;;;;;31.10;16.30;;;;;;;-0.96;76.52;101328.11;113005;240;38541;-67
2024/01/22 01:45:41;;;;;;;26.90;14.60;;;;;;;-0.98;76.15;101330.45;112980;240;39502;-68
2024/01/22 01:48:15;;;;;;;26.00;13.60;;;;;;;-0.98;76.22;101340.54;112967;240;38337;-69
2024/01/22 01:50:49;;;;;;;24.90;14.40;;;;;;;-0.95;76.04;101338.39;112977;240;38827;-68
2024/01/22 01:53:22;;;;;;;26.10;14.80;;;;;;;-0.92;76.19;101333.68;112990;240;38875;-68
2024/01/22 01:55:56;;;;;;;26.00;14.40;;;;;;;-0.90;76.04;101347.43;112966;240;38848;-68
2024/01/22 01:58:29;;;;;;;26.40;14.20;;;;;;;-0.89;76.06;101342.48;112951;240;38691;-68
2024/01/22 02:01:03;;;;;;;22.70;15.10;;;;;;;-0.89;76.02;101342.65;112854;240;38931;-68
2024/01/22 02:03:37;;;;;;;26.80;14.80;;;;;;;-0.91;75.62;101343.98;112804;240;190858;-68
2024/01/22 02:06:10;;;;;;;26.00;14.40;;;;;;;-0.95;75.31;101334.63;112914;240;38623;-68
2024/01/22 02:08:51;;;;;;;27.30;14.70;;;;;;;-0.98;75.04;101332.50;112916;240;38891;-68
2024/01/22 02:11:25;;;;;;;24.40;13.80;;;;;;;-1.02;74.84;101333.95;112938;240;38938;-67
2024/01/22 02:13:59;;;;;;;23.80;13.90;;;;;;;-1.06;74.88;101334.02;113006;240;38402;-67
2024/01/22 02:16:33;;;;;;;23.30;13.00;;;;;;;-1.11;74.22;101332.36;112956;240;38520;-67
2024/01/22 02:19:07;;;;;;;22.10;12.60;;;;;;;-1.13;74.33;101328.56;112939;240;38846;-67
2024/01/22 02:21:40;;;;;;;22.90;12.30;;;;;;;-1.11;74.71;101323.81;112952;240;39286;-67
2024/01/22 02:24:14;;;;;;;22.80;13.10;;;;;;;-1.08;74.94;101326.28;112960;240;38918;-67
2024/01/22 02:26:48;;;;;;;22.50;13.00;;;;;;;-1.06;74.52;101331.64;112912;240;40445;-67
2024/01/22 02:29:22;;;;;;;25.00;12.70;;;;;;;-1.05;74.80;101327.89;112903;240;38838;-67
2024/01/22 02:31:56;;;;;;;24.70;13.60;;;;;;;-1.05;74.59;101320.00;112963;240;39015;-67
2024/01/22 02:34:30;;;;;;;22.40;12.80;;;;;;;-1.07;74.18;101312.08;112911;240;39895;-67
2024/01/22 02:37:04;;;;;;;20.40;12.60;;;;;;;-1.10;73.81;101313.20;112902;240;40162;-67
2024/01/22 02:39:38;;;;;;;24.20;12.90;;;;;;;-1.14;73.73;101308.98;112934;240;38524;-68
2024/01/22 02:42:12;;;;;;;22.10;12.30;;;;;;;-1.17;73.47;101298.84;112958;240;39303;-68
2024/01/22 02:44:46;;;;;;;23.60;13.10;;;;;;;-1.20;73.39;101288.14;112833;241;38891;-67
2024/01/22 02:47:20;;;;;;;22.30;11.90;;;;;;;-1.24;72.79;101275.87;113150;239;38404;-67
2024/01/22 02:49:54;;;;;;;19.90;11.40;;;;;;;-1.27;73.01;101271.36;113112;239;39500;-68
2024/01/22 02:52:27;;;;;;;21.50;10.40;;;;;;;-1.28;73.35;101262.95;113140;239;38907;-68
2024/01/22 02:55:01;;;;;;;18.00;10.50;;;;;;;-1.26;73.43;101258.02;113129;239;38321;-68
2024/01/22 02:57:35;;;;;;;19.90;11.10;;;;;;;-1.23;72.93;101246.84;113158;239;38526;-68
2024/01/22 03:00:11;;;;;;;18.70;10.80;;;;;;;-1.18;72.81;101251.72;113154;239;38872;-69
2024/01/22 03:02:44;;;;;;;18.00;9.90;;;;;;;-1.13;72.68;101247.40;112837;240;38442;-69
2024/01/22 03:05:18;;;;;;;19.60;9.80;;;;;;;-1.07;72.49;101243.08;113125;239;38825;-68
2024/01/22 03:07:52;;;;;;;18.90;10.40;;;;;;;-1.04;72.97;101240.74;113107;240;38542;-68
2024/01/22 03:10:26;;;;;;;18.70;10.60;;;;;;;-1.04;72.68;101241.61;113008;239;172760;-68
2024/01/22 03:12:59;;;;;;;20.00;10.30;;;;;;;-1.03;72.32;101246.93;113122;239;38739;-68
2024/01/22 03:15:33;;;;;;;19.50;10.50;;;;;;;-1.03;72.13;101240.94;112864;240;38321;-67
2024/01/22 03:18:07;;;;;;;18.50;10.40;;;;;;;-1.02;71.75;101239.94;113124;239;38702;-67
2024/01/22 03:20:40;;;;;;;16.10;10.10;;;;;;;-1.01;71.06;101243.55;113137;239;40289;-67
2024/01/22 03:23:14;;;;;;;18.10;10.10;;;;;;;-0.99;71.53;101249.94;113131;240;39081;-67
2024/01/22 03:25:48;;;;;;;18.90;10.10;;;;;;;-0.99;71.59;101251.64;113126;240;38611;-67
2024/01/22 03:28:22;;;;;;;16.70;10.40;;;;;;;-0.98;71.11;101241.73;113133;240;38551;-67
2024/01/22 03:30:56;;;;;;;19.20;10.00;;;;;;;-0.94;70.14;101237.72;113106;239;39743;-67
2024/01/22 03:33:29;;;;;;;19.30;9.80;;;;;;;-0.90;70.48;101237.98;113139;239;39756;-67
2024/01/22 03:36:03;;;;;;;14.60;8.30;;;;;;;-0.87;70.27;101228.98;113122;240;38531;-68
2024/01/22 03:38:38;;;;;;;14.50;8.70;;;;;;;-0.84;70.34;101222.55;113121;239;38816;-68
2024/01/22 03:41:11;;;;;;;18.50;10.30;;;;;;;-0.82;69.84;101221.56;113142;239;39760;-67
2024/01/22 03:43:46;;;;;;;15.80;10.00;;;;;;;-0.80;69.85;101227.58;113150;239;40223;-67
2024/01/22 03:46:20;;;;;;;16.30;9.50;;;;;;;-0.80;70.16;101221.59;113137;239;38954;-67
2024/01/22 03:48:54;;;;;;;19.70;9.70;;;;;;;-0.80;69.05;101223.30;113142;239;38354;-67
2024/01/22 03:51:28;;;;;;;17.40;9.70;;;;;;;-0.81;68.84;101229.29;113169;239;38387;-67
2024/01/22 03:54:02;;;;;;;17.10;8.60;;;;;;;-0.81;69.15;101235.95;113153;239;38486;-68
2024/01/22 03:56:37;;;;;;;16.70;9.00;;;;;;;-0.81;69.41;101230.81;113148;239;38288;-69
2024/01/22 03:59:11;;;;;;;13.50;8.40;;;;;;;-0.83;69.24;101227.02;113150;239;38325;-68
2024/01/22 04:01:45;;;;;;;15.80;9.10;;;;;;;-0.85;69.31;101221.98;113140;239;38858;-68
2024/01/22 04:04:19;;;;;;;16.20;8.80;;;;;;;-0.89;69.17;101219.51;113125;239;39767;-68
2024/01/22 04:06:52;;;;;;;16.20;8.40;;;;;;;-0.91;69.69;101217.92;113142;239;39519;-69
2024/01/22 04:09:26;;;;;;;13.50;8.40;;;;;;;-0.95;69.66;101211.66;113157;239;40181;-68
2024/01/22 04:12:00;;;;;;;15.50;7.50;;;;;;;-0.97;69.80;101202.88;113174;239;39210;-68
2024/01/22 04:14:33;;;;;;;13.50;7.60;;;;;;;-0.94;69.40;101198.33;113128;239;39143;-68
2024/01/22 04:17:07;;;;;;;15.90;8.50;;;;;;;-0.90;69.52;101194.98;113104;239;39301;-68
2024/01/22 04:19:41;;;;;;;15.60;8.20;;;;;;;-0.86;68.79;101194.73;113118;239;39927;-67
2024/01/22 04:22:14;;;;;;;14.20;8.30;;;;;;;-0.83;69.22;101180.77;113152;239;38532;-67
2024/01/22 04:24:48;;;;;;;13.10;8.30;;;;;;;-0.81;69.26;101171.72;113157;239;40056;-67
2024/01/22 04:27:22;;;;;;;17.20;9.00;;;;;;;-0.79;69.13;101169.36;113121;239;38369;-67
2024/01/22 04:29:56;;;;;;;16.50;8.70;;;;;;;-0.78;69.23;101172.30;113162;239;38616;-68
2024/01/22 04:32:29;;;;;;;17.90;8.70;;;;;;;-0.77;69.20;101167.52;113117;239;39750;-68
2024/01/22 04:35:04;;;;;;;15.50;8.50;;;;;;;-0.76;69.20;101165.48;113115;239;38409;-67
2024/01/22 04:37:37;;;;;;;17.50;9.50;;;;;;;-0.75;68.55;101162.23;113126;239;38658;-67
2024/01/22 04:40:16;;;;;;;21.90;9.40;;;;;;;-0.75;68.67;101163.45;113153;239;38652;-68
2024/01/22 04:42:50;;;;;;;14.60;8.60;;;;;;;-0.72;69.00;101156.83;113126;239;38707;-68
2024/01/22 04:45:23;;;;;;;16.20;9.60;;;;;;;-0.69;67.91;101149.01;113148;239;38903;-68
2024/01/22 04:47:57;;;;;;;16.00;9.40;;;;;;;-0.66;67.91;101145.46;113130;239;38382;-68
2024/01/22 04:50:31;;;;;;;15.30;9.10;;;;;;;-0.64;67.46;101141.27;113138;239;39750;-67
2024/01/22 04:53:05;;;;;;;17.50;8.90;;;;;;;-0.62;67.78;101133.40;113162;239;38964;-67
2024/01/22 04:55:38;;;;;;;18.40;9.50;;;;;;;-0.57;67.73;101125.09;113131;239;38313;-67
2024/01/22 04:58:12;;;;;;;18.80;10.20;;;;;;;-0.54;66.91;101117.98;113131;239;39451;-67
2024/01/22 05:00:46;;;;;;;21.10;10.40;;;;;;;-0.50;67.32;101114.42;113126;239;40037;-67
2024/01/22 05:03:19;;;;;;;22.50;11.30;;;;;;;-0.48;67.41;101119.61;113142;239;40103;-67
2024/01/22 05:05:53;;;;;;;18.70;10.10;;;;;;;-0.45;67.09;101121.02;112894;239;313128;-68
2024/01/22 05:08:27;;;;;;;18.60;10.30;;;;;;;-0.44;67.15;101119.67;113128;239;38846;-68
2024/01/22 05:11:00;;;;;;;19.00;10.20;;;;;;;-0.43;66.83;101114.20;113137;239;39783;-68
2024/01/22 05:13:34;;;;;;;18.10;9.50;;;;;;;-0.43;66.35;101105.80;113129;239;38827;-68
2024/01/22 05:16:08;;;;;;;16.50;9.90;;;;;;;-0.47;66.26;101099.05;113127;239;38406;-68
2024/01/22 05:18:42;;;;;;;18.00;10.20;;;;;;;-0.52;66.06;101090.73;113114;239;39487;-68
2024/01/22 05:21:16;;;;;;;19.30;10.40;;;;;;;-0.56;66.49;101092.20;113131;239;40025;-67
2024/01/22 05:23:50;;;;;;;22.40;11.00;;;;;;;-0.60;66.04;101089.55;113159;239;38318;-67
2024/01/22 05:26:23;;;;;;;19.90;10.20;;;;;;;-0.65;66.23;101088.79;113150;239;38882;-67
2024/01/22 05:28:56;;;;;;;17.40;9.80;;;;;;;-0.68;66.06;101096.60;113150;239;39907;-67
2024/01/22 05:31:30;;;;;;;19.20;10.20;;;;;;;-0.72;66.25;101098.59;113157;239;38849;-67
2024/01/22 05:34:04;;;;;;;21.70;10.70;;;;;;;-0.74;65.79;101098.86;113165;239;39799;-67
2024/01/22 05:36:37;;;;;;;22.40;11.00;;;;;;;-0.75;66.38;101093.20;113153;239;39331;-67
2024/01/22 05:39:12;;;;;;;17.30;10.10;;;;;;;-0.75;66.29;101087.72;113146;239;39103;-68
2024/01/22 05:41:46;;;;;;;17.40;10.20;;;;;;;-0.74;66.19;101077.13;113132;239;39975;-67
2024/01/22 05:44:20;;;;;;;19.00;9.40;;;;;;;-0.73;65.58;101074.94;113127;239;39890;-68
2024/01/22 05:46:53;;;;;;;20.10;10.60;;;;;;;-0.71;65.97;101071.02;113133;239;38850;-68
2024/01/22 05:49:27;;;;;;;16.10;9.20;;;;;;;-0.66;65.83;101062.19;113121;239;39033;-68
2024/01/22 05:52:01;;;;;;;20.80;9.70;;;;;;;-0.61;66.06;101055.43;113132;239;39141;-68
2024/01/22 05:54:35;;;;;;;16.30;9.60;;;;;;;-0.57;66.44;101049.70;113120;239;38661;-67
2024/01/22 05:57:10;;;;;;;18.00;10.20;;;;;;;-0.53;66.13;101036.41;113137;239;39783;-67
2024/01/22 05:59:43;;;;;;;17.10;9.60;;;;;;;-0.52;65.74;101035.73;113153;239;38395;-68
2024/01/22 06:02:17;;;;;;;16.20;9.90;;;;;;;-0.53;65.92;101038.13;113130;239;38420;-68
2024/01/22 06:04:50;;;;;;;17.70;9.30;;;;;;;-0.54;66.12;101028.15;113143;239;38990;-68
2024/01/22 06:07:24;;;;;;;19.80;10.40;;;;;;;-0.55;66.06;101029.16;113114;239;40011;-68
2024/01/22 06:09:58;;;;;;;20.60;10.70;;;;;;;-0.54;66.10;101018.73;113177;239;39165;-67
2024/01/22 06:12:32;;;;;;;18.00;10.50;;;;;;;-0.52;65.35;101009.00;113165;239;40191;-67
2024/01/22 06:15:07;;;;;;;19.80;10.80;;;;;;;-0.49;64.96;101004.42;113137;239;38476;-68
2024/01/22 06:17:40;;;;;;;16.30;9.60;;;;;;;-0.45;65.12;100990.06;113132;239;38712;-69
2024/01/22 06:20:15;;;;;;;16.70;9.60;;;;;;;-0.42;65.30;100979.51;113135;239;39554;-67
2024/01/22 06:22:49;;;;;;;15.10;9.00;;;;;;;-0.39;64.77;100968.42;113157;239;38968;-67
2024/01/22 06:25:22;;;;;;;15.00;8.70;;;;;;;-0.36;64.71;100969.30;113165;239;38994;-67
2024/01/22 06:27:56;;;;;;;19.40;9.20;;;;;;;-0.35;64.76;100957.85;113146;239;38897;-67
2024/01/22 06:30:30;;;;;;;17.70;8.80;;;;;;;-0.33;64.78;100952.41;113155;239;38283;-67
2024/01/22 06:33:04;;;;;;;17.10;9.10;;;;;;;-0.32;64.81;100939.22;113135;239;38883;-67
2024/01/22 06:35:37;;;;;;;14.80;9.50;;;;;;;-0.33;64.48;100931.32;113139;239;39168;-68
2024/01/22 06:38:11;;;;;;;14.70;8.10;;;;;;;-0.34;64.24;100926.84;113135;239;38497;-68
2024/01/22 06:40:45;;;;;;;17.00;8.10;;;;;;;-0.36;64.03;100925.77;112879;239;38517;-68
2024/01/22 06:43:19;;;;;;;13.70;8.20;;;;;;;-0.38;63.21;100931.08;113120;239;40091;-68
2024/01/22 06:45:52;;;;;;;14.80;8.00;;;;;;;-0.38;63.40;100938.79;113008;239;175219;-67
2024/01/22 06:48:26;;;;;;;14.20;7.70;;;;;;;-0.36;63.39;100944.45;113156;239;38917;-67
2024/01/22 06:51:00;;;;;;;15.20;8.30;;;;;;;-0.34;63.74;100937.98;113170;239;38700;-68
2024/01/22 06:53:33;;;;;;;12.00;7.60;;;;;;;-0.32;62.93;100927.56;113131;239;38807;-68
2024/01/22 06:56:08;;;;;;;12.30;7.80;;;;;;;-0.29;63.13;100915.77;113148;239;38855;-68
2024/01/22 06:58:42;;;;;;;11.40;7.70;;;;;;;-0.26;63.20;100921.64;113159;239;39919;-66
2024/01/22 07:01:16;;;;;;;12.90;8.30;;;;;;;-0.21;62.79;100924.80;113125;239;38677;-67
2024/01/22 07:03:50;;;;;;;14.60;7.70;;;;;;;-0.18;62.94;100929.48;113149;239;38760;-68
2024/01/22 07:06:23;;;;;;;12.20;7.90;;;;;;;-0.14;62.35;100938.98;113137;239;38948;-67
2024/01/22 07:08:57;;;;;;;13.60;7.70;;;;;;;-0.09;62.20;100942.14;113131;239;38955;-67
2024/01/22 07:11:31;;;;;;;14.50;8.00;;;;;;;-0.04;62.40;100945.98;113139;239;39346;-68
2024/01/22 07:14:05;;;;;;;13.30;7.40;;;;;;;0.00;61.74;100943.46;113152;239;38792;-67
2024/01/22 07:16:39;;;;;;;12.80;7.30;;;;;;;0.04;62.00;100936.99;113151;239;38290;-67
2024/01/22 07:19:14;;;;;;;14.00;8.50;;;;;;;0.08;62.56;100944.25;113169;239;39820;-67
2024/01/22 07:21:48;;;;;;;13.40;7.60;;;;;;;0.12;62.12;100949.98;113116;239;40217;-67
2024/01/22 07:24:22;;;;;;;14.40;8.00;;;;;;;0.17;61.37;100959.65;113158;239;38427;-67
2024/01/22 07:26:56;;;;;;;14.90;6.90;;;;;;;0.23;61.87;100958.36;113118;239;38994;-67
2024/01/22 07:29:30;;;;;;;12.20;7.10;;;;;;;0.30;61.10;100954.15;113146;239;38554;-67
2024/01/22 07:32:04;;;;;;;12.70;7.90;;;;;;;0.42;61.68;100957.23;113151;239;40156;-67
2024/01/22 07:34:37;;;;;;;12.40;7.50;;;;;;;0.48;60.82;100955.07;113138;239;38731;-69
2024/01/22 07:37:11;;;;;;;11.60;6.80;;;;;;;0.51;60.77;100948.08;113131;239;38414;-68
2024/01/22 07:39:44;;;;;;;14.80;7.30;;;;;;;0.54;60.53;100941.59;113152;239;38730;-68
2024/01/22 07:42:18;;;;;;;12.10;6.80;;;;;;;0.59;60.37;100944.39;113128;239;38374;-68
2024/01/22 07:44:52;;;;;;;13.20;7.40;;;;;;;0.64;60.51;100940.33;113155;239;38557;-68
2024/01/22 07:47:25;;;;;;;14.50;7.40;;;;;;;0.70;60.89;100929.58;113133;239;38777;-69
2024/01/22 07:49:59;;;;;;;11.30;7.50;;;;;;;0.76;60.50;100933.44;113145;239;38303;-67
2024/01/22 07:52:33;;;;;;;12.20;7.60;;;;;;;0.83;59.85;100935.55;113135;239;39620;-67
2024/01/22 07:55:08;;;;;;;12.40;7.20;;;;;;;0.87;59.83;100922.20;113136;239;39882;-67
2024/01/22 07:57:42;;;;;;;13.50;7.80;;;;;;;0.91;59.45;100916.92;113136;239;38537;-67
2024/01/22 08:00:17;;;;;;;12.30;7.40;;;;;;;0.94;59.54;100911.45;113123;239;38705;-68
2024/01/22 08:02:51;;;;;;;11.60;7.10;;;;;;;0.98;59.67;100901.17;113157;239;40008;-69
2024/01/22 08:05:25;;;;;;;13.20;7.80;;;;;;;1.01;58.62;100892.45;113161;239;38226;-68
2024/01/22 08:07:58;;;;;;;11.90;6.40;;;;;;;1.03;57.99;100889.73;113133;239;38491;-68
2024/01/22 08:10:32;;;;;;;11.20;6.60;;;;;;;1.08;58.00;100892.52;113142;239;38341;-67
2024/01/22 08:13:07;;;;;;;12.20;7.20;;;;;;;1.13;58.40;100891.54;113119;239;40175;-67
2024/01/22 08:15:40;;;;;;;10.50;6.50;;;;;;;1.20;58.78;100892.98;113140;239;40029;-67
2024/01/22 08:18:14;;;;;;;12.70;6.70;;;;;;;1.27;57.88;100889.42;113138;239;38760;-67
2024/01/22 08:20:48;;;;;;;9.90;6.10;;;;;;;1.34;57.72;100885.87;113125;239;39675;-67
2024/01/22 08:23:22;;;;;;;9.40;6.50;;;;;;;1.41;57.33;100880.93;113129;239;38724;-67
2024/01/22 08:25:56;;;;;;;8.80;6.30;;;;;;;1.47;56.79;100876.52;113135;239;38731;-67
2024/01/22 08:28:30;;;;;;;11.80;7.70;;;;;;;1.52;55.88;100870.35;113150;239;38261;-67
2024/01/22 08:31:03;;;;;;;12.00;6.90;;;;;;;1.58;56.28;100869.36;113118;239;38823;-69
2024/01/22 08:33:37;;;;;;;11.30;5.90;;;;;;;1.65;56.43;100863.39;113136;239;38528;-68
2024/01/22 08:36:11;;;;;;;11.60;6.50;;;;;;;1.70;56.25;100857.92;113152;239;38521;-68
2024/01/22 08:38:45;;;;;;;9.00;6.20;;;;;;;1.75;55.44;100853.48;113170;239;38644;-68
2024/01/22 08:41:19;;;;;;;12.00;6.70;;;;;;;1.80;56.10;100845.93;113112;239;38751;-67
2024/01/22 08:43:52;;;;;;;12.30;6.60;;;;;;;1.85;55.97;100840.27;113138;239;39892;-67
2024/01/22 08:46:26;;;;;;;10.40;6.30;;;;;;;1.89;55.60;100839.27;113152;239;39282;-67
2024/01/22 08:48:59;;;;;;;12.70;6.90;;;;;;;1.93;54.50;100833.45;113139;239;39009;-68
2024/01/22 08:51:33;;;;;;;10.40;6.40;;;;;;;1.96;55.24;100827.60;113150;239;38504;-68
2024/01/22 08:54:07;;;;;;;11.60;7.10;;;;;;;2.00;54.25;100825.73;113115;239;38805;-68
2024/01/22 08:56:40;;;;;;;11.90;7.00;;;;;;;2.03;55.13;100822.99;113126;239;38729;-68
2024/01/22 08:59:15;;;;;;;11.70;6.50;;;;;;;2.07;54.92;100817.33;113125;239;38316;-68
2024/01/22 09:01:50;;;;;;;10.60;6.50;;;;;;;2.13;54.76;100811.33;113130;239;38568;-69
2024/01/22 09:04:37;;;;;;;10.30;5.90;;;;;;;2.17;54.28;100809.96;113141;239;38455;-68
2024/01/22 09:07:11;;;;;;;9.50;6.00;;;;;;;2.21;54.33;100802.73;113155;239;38322;-68
2024/01/22 09:09:44;;;;;;;8.90;6.00;;;;;;;2.26;54.14;100796.39;113143;239;38519;-68
2024/01/22 09:12:18;;;;;;;10.40;6.50;;;;;;;2.30;53.95;100790.20;113108;239;38342;-68
2024/01/22 09:14:52;;;;;;;11.40;6.10;;;;;;;2.36;53.95;100786.77;113095;239;40248;-67
2024/01/22 09:17:26;;;;;;;11.60;6.50;;;;;;;2.41;54.14;100781.80;113144;239;40017;-67
2024/01/22 09:19:59;;;;;;;11.20;6.10;;;;;;;2.46;53.64;100775.08;113143;239;38744;-67
2024/01/22 09:22:33;;;;;;;9.80;5.50;;;;;;;2.51;52.79;100773.38;112936;239;38543;-67
2024/01/22 09:25:09;;;;;;;10.80;6.30;;;;;;;2.56;52.64;100768.90;113155;239;38320;-67
2024/01/22 09:27:42;;;;;;;9.70;5.90;;;;;;;2.60;52.17;100760.81;113015;239;175027;-67
2024/01/22 09:30:17;;;;;;;8.00;5.30;;;;;;;2.65;52.16;100756.15;113148;239;38918;-67
2024/01/22 09:32:52;;;;;;;7.70;5.50;;;;;;;2.71;51.79;100756.15;113136;239;38542;-67
2024/01/22 09:35:26;;;;;;;12.70;6.80;;;;;;;2.75;50.96;100750.48;113155;239;38542;-68
2024/01/22 09:38:01;;;;;;;8.70;5.90;;;;;;;2.79;51.02;100748.93;112995;239;175016;-68
2024/01/22 09:40:36;;;;;;;10.80;6.10;;;;;;;2.85;51.69;100746.52;113017;239;189594;-67
2024/01/22 09:43:10;;;;;;;10.80;6.30;;;;;;;2.90;51.31;100745.30;112977;239;175054;-67
2024/01/22 09:45:44;;;;;;;8.50;5.50;;;;;;;2.95;51.11;100744.95;113134;239;38457;-68
2024/01/22 09:48:18;;;;;;;8.90;5.40;;;;;;;2.99;50.85;100740.28;113117;239;38818;-68
2024/01/22 09:50:53;;;;;;;8.80;5.60;;;;;;;3.03;50.56;100736.85;113123;239;38891;-67
2024/01/22 09:53:26;;;;;;;8.90;5.60;;;;;;;3.05;50.36;100719.62;113152;239;40268;-67
2024/01/22 09:56:00;;;;;;;9.20;5.60;;;;;;;3.08;50.48;100709.60;113142;239;38557;-68
2024/01/22 09:58:37;;;;;;;8.80;5.80;;;;;;;3.10;49.45;100682.89;113143;239;38600;-68
2024/01/22 10:01:11;;;;;;;10.40;5.30;;;;;;;3.14;50.11;100670.46;113126;239;38598;-67
2024/01/22 10:03:46;;;;;;;9.60;5.60;;;;;;;3.17;50.33;100667.17;113112;239;40002;-67
2024/01/22 10:06:21;;;;;;;8.20;5.30;;;;;;;3.21;49.00;100678.55;113101;239;39828;-67
2024/01/22 10:09:01;;;;;;;9.10;5.60;;;;;;;3.25;49.15;100675.42;113015;239;174983;-68
2024/01/22 10:11:35;;;;;;;7.80;5.20;;;;;;;3.27;49.11;100666.45;113142;239;39743;-68
2024/01/22 10:14:09;;;;;;;8.90;4.80;;;;;;;3.31;49.63;100660.92;113146;239;39074;-67
2024/01/22 10:16:44;;;;;;;10.40;5.70;;;;;;;3.33;49.07;100664.02;113154;239;40062;-67
2024/01/22 10:19:18;;;;;;;9.90;5.20;;;;;;;3.33;48.81;100656.77;113126;239;39732;-68
2024/01/22 10:21:52;;;;;;;7.60;5.20;;;;;;;3.33;48.38;100649.53;113182;239;38468;-68
2024/01/22 10:24:26;;;;;;;8.40;5.40;;;;;;;3.31;48.10;100642.30;113173;239;38772;-67
2024/01/22 10:27:02;;;;;;;12.00;6.20;;;;;;;3.30;47.76;100630.41;113141;239;38739;-67
2024/01/22 10:29:36;;;;;;;10.80;5.80;;;;;;;3.29;47.89;100602.98;113125;239;39514;-67
2024/01/22 10:32:10;;;;;;;10.40;4.90;;;;;;;3.30;47.60;100584.71;113131;239;38886;-67
2024/01/22 10:34:53;;;;;;;10.30;5.00;;;;;;;3.34;47.11;100557.79;113150;239;39714;-67
2024/01/22 10:37:27;;;;;;;9.60;5.10;;;;;;;3.38;47.62;100570.19;113102;239;39494;-67
2024/01/22 10:40:09;;;;;;;9.30;5.30;;;;;;;3.42;47.92;100553.27;113164;239;38476;-69
2024/01/22 10:42:45;;;;;;;9.20;5.00;;;;;;;3.46;46.20;100544.80;113116;239;38615;-69
2024/01/22 10:45:19;;;;;;;9.00;5.60;;;;;;;3.48;47.17;100545.48;113142;239;39465;-67
2024/01/22 10:47:53;;;;;;;8.70;5.20;;;;;;;3.53;47.94;100539.06;113126;239;38554;-67
2024/01/22 10:50:27;;;;;;;10.80;5.30;;;;;;;3.57;47.42;100542.65;113134;239;39505;-68
2024/01/22 10:53:00;;;;;;;8.00;4.90;;;;;;;3.61;47.43;100545.55;113117;239;39445;-68
2024/01/22 10:55:34;;;;;;;7.10;4.70;;;;;;;3.68;47.02;100542.75;113169;239;38844;-68
2024/01/22 10:58:13;;;;;;;10.20;5.30;;;;;;;3.71;46.15;100538.59;113171;239;39089;-68
2024/01/22 11:00:47;;;;;;;7.70;4.80;;;;;;;3.76;45.83;100538.21;113151;239;38872;-68
2024/01/22 11:03:20;;;;;;;9.20;5.00;;;;;;;3.80;46.62;100536.11;113178;239;38397;-69
2024/01/22 11:05:55;;;;;;;9.80;5.20;;;;;;;3.85;46.89;100534.69;113163;239;39443;-68
2024/01/22 11:08:31;;;;;;;9.20;4.90;;;;;;;3.89;46.31;100526.55;113111;239;39708;-69
2024/01/22 11:11:04;;;;;;;7.80;5.20;;;;;;;3.93;46.68;100502.86;113125;239;38825;-67
2024/01/22 11:13:38;;;;;;;8.40;5.00;;;;;;;3.98;46.81;100501.10;113143;239;39389;-67
2024/01/22 11:16:12;;;;;;;8.90;5.40;;;;;;;4.01;46.67;100488.80;113138;239;38512;-67
2024/01/22 11:19:01;;;;;;;9.00;4.60;;;;;;;4.05;46.98;100484.27;113118;239;38391;-67
2024/01/22 11:21:39;;;;;;;7.60;4.90;;;;;;;4.09;46.24;100472.52;113097;239;38299;-67
2024/01/22 11:24:17;;;;;;;9.50;5.00;;;;;;;4.12;46.28;100481.61;113091;239;38853;-67
2024/01/22 11:27:06;;;;;;;9.00;5.30;;;;;;;4.16;46.07;100461.38;113149;239;38375;-67
2024/01/22 11:29:38;;;;;;;;;;;;;;;4.20;45.41;100453.41;113157;239;38847;-69
2024/01/22 11:32:29;;;;;;;9.70;5.10;;;;;;;4.23;45.28;100457.17;113120;239;38558;-69
2024/01/22 11:35:04;;;;;;;8.90;5.10;;;;;;;4.27;45.54;100461.27;113163;239;39152;-69
2024/01/22 11:37:40;;;;;;;8.60;5.00;;;;;;;4.34;45.83;100475.53;113182;239;39483;-69
2024/01/22 11:40:16;;;;;;;10.50;5.60;;;;;;;4.41;46.03;100488.75;113164;239;38932;-67
2024/01/22 11:42:49;;;;;;;12.20;5.80;;;;;;;4.47;44.88;100494.58;113131;239;38595;-67
2024/01/22 11:45:23;;;;;;;9.70;5.50;;;;;;;4.52;45.99;100496.74;113109;239;38880;-68
2024/01/22 11:47:57;;;;;;;7.00;5.00;;;;;;;4.57;45.38;100490.13;113180;239;38507;-69
2024/01/22 11:50:31;;;;;;;9.30;5.60;;;;;;;4.58;45.02;100485.45;113168;239;39918;-68